Detroit Metropolitan Wayne County Airport
KDTW : rendu visible

Aérodrome :











RETROUVEZ-NOUS SUR...

 
LOGIN :

S'inscrire | Disclaimer

   EN    FR    IT 

 









Légende :    VFR   VFR Marginal   IFR   IFR Intensif   IFR Très Intensif
Visi : 
Plafond : 
>= 8 km
>= 3000ft
5 à 8 km
1000 à 3000 ft
1500m à 5 km
500 à 1000 ft
800 à 1500m
200 à 500 ft
< 800m
< 200 ft
Symboles :   Orages  Brouillard  Fortes neiges  Fortes précipitations  Vent > 20 kt






- Altitude de l'aérodrome : 645 ft
- Code IATA : DTW


KDTW - Detroit Metropolitan Wayne County

DERNIER METAR :
  • 201853Z 28005KT 6SM HZ OVC025 06/02 A3019 RMK AO2 SLP229 T00610017

METARs EXPIRÉS :
  • 201753Z 22006KT 5SM HZ OVC025 06/01 A3019 RMK AO2 SLP229 T00610011 10061 20022 50004
  • 201653Z 23006KT 5SM HZ OVC028 06/01 A3020 RMK AO2 SLP231 T00560011

TAF KDTW
Valide du 20 à 18h jusqu'au 22 à 00h UTC


201733Z 2018/2124 23006KT P6SM OVC025
TEMPO 2018/2019 5SM HZ
FM210500 16003KT P6SM BKN018
FM210800 17008KT P6SM SCT015 BKN120
FM211400 18011KT P6SM OVC120
FM212100 19015G25KT P6SM OVC120 WS020/21048KT



MET'MAP, la Météo Aéronautique d'un coup d'oeil ! - Copyright ORBIFLY Décembre 2007 - Disclaimer

ORBIFLY MET'MAP TEAM :

Programmation & Développement : Alexandra Zaïnal
Conception & Développement : Baudouin d'Aumeries
Co-Programmation & Développement : Marc-Olivier Méhu
Soutien technique & logistique : Manuel Goepfert

Contact : metmap@orbifly.com




SOURCES & CREDITS :

   NOAA       Earth
Advisory